Manuel Castro

Olheiro-Chefe - Eibar
19 Ago 2027
Quinta-feira
Processo

Personalidade

Adaptabilidade (11) Ambição (18) Controvérsia (4) Lealdade (6) Pressão (11) Profissionalismo (20) Espírito Esportivo (2) Temperamento (15)

Perfil

Estilo de Treinamento Democrático
Licença Nacional B
Determinação 9
Gestão de Pessoas 6
Motivação 10
Disciplina 6
Satisfação no Trabalho
63%
Fadiga
0%
Função Olheiro-Chefe
Salário 74.7K p/s
Contrato 14.03.2028

Desempenho

Comportamento Bom
Eficácia do Treinamento
17%
Desenvolvimento do Jogador
55%
Prevenção de Lesões
20%
Implementação Tática
20%

Eventos Recentes

Participou de uma reunião de recrutamento agora
Participou de uma reunião de recrutamento 7d atrás
Recomendou um alvo de transferência 7d atrás
Participou de uma reunião de recrutamento 7d atrás
Participou de uma reunião de recrutamento 14d atrás
Recomendou um alvo de transferência 14d atrás
Participou de uma reunião de recrutamento 14d atrás
Participou de uma reunião de recrutamento 21d atrás

Monitorando agora

105
Jogador Clube Status Habilidade Confiança Observado Última observação Último voto
Marcus Forss Girona Relatório pronto 114 / 109 72% 1 19.07.2027 -
Thulani Erasmus Platinum Stars Ativo 109 / 106 40% 3 12.07.2027 -
Leo Castledine Middlesbrough Ativo 136 / 144 40% 1 12.07.2027 -
Gianluca Prestianni Benfica Ativo 137 / 135 40% 1 12.07.2027 -
Yusi Alavés Ativo 137 / 145 40% 10 28.06.2027 -
Lander Astiazarán Real Sociedad Ativo 100 / 103 67% 2 28.06.2027 Observar
Shea Lacey Wolverhampton Ativo 124 / 128 40% 1 28.06.2027 -
Caleb Yirenkyi Coventry City Ativo 136 / 147 40% 9 14.06.2027 -
Dion Beljo Standard Liege Negociando 131 / 132 66% 1 01.06.2027 -
Pablo Solari Galatasaray Negociando 128 / 128 68% 1 01.06.2027 -
Davide Bartesaghi AC Milan Ativo 133 / 140 40% 6 31.05.2027 -
Christos Mouzakitis Hull City Ativo 127 / 141 40% 7 30.05.2027 -
Jon Garro Real Sociedad Ativo 84 / 101 40% 3 30.05.2027 -
David Valencia Alianza Petrolera Ativo 128 / 122 40% 2 30.05.2027 -
Adam Bakoune Ospitaletto Ativo 94 / 96 40% 1 29.05.2027 -
Jofre Torrents Ajax Ativo 130 / 138 40% 6 27.05.2027 -
Leandro Martins Benfica Ativo 93 / 88 40% 2 27.05.2027 -
Alan Morinigo Olimpia Ativo 111 / 123 40% 1 27.05.2027 -
Josh King Chelsea Ativo 144 / 138 40% 6 24.05.2027 -
Lucas Høgsberg RC Strasbourg Ativo 139 / 136 40% 8 24.05.2027 -
Percy Jali Free State Stars Ativo 101 / 89 40% 3 24.05.2027 -
José Pachuca Puebla Ativo 103 / 129 40% 6 21.05.2027 -
Samuel Lucero Defensa y Justicia Ativo 117 / 132 40% 3 20.05.2027 -
Yussif Saidu Zaragoza Ativo 117 / 134 40% 5 20.05.2027 -
Jan Bürger Gillingham Ativo 104 / 115 40% 4 19.05.2027 -
Sascha Britschgi Padova Ativo 120 / 128 40% 1 18.05.2027 -
Dylan Lawlor Cardiff City Ativo 118 / 126 40% 4 17.05.2027 -
Nazareno Kihm Ferro Carril Oeste Ativo 118 / 134 40% 2 16.05.2027 -
Toni Tamarit Alverca Ativo 109 / 133 40% 2 14.05.2027 -
Matías Gómez Granada Ativo 107 / 117 40% 2 12.05.2027 -
Kevin Vazquez Cruz Azul Ativo 130 / 137 40% 13 10.05.2027 -
Finn Jeltsch VfB Stuttgart Ativo 142 / 133 40% 2 06.05.2027 -
Jaydee Canvot Crystal Palace Ativo 138 / 147 40% 2 06.05.2027 -
Izan Merino Málaga Ativo 116 / 127 40% 6 03.05.2027 -
Kazunari Kita Real Sociedad Ativo 93 / 94 40% 2 03.05.2027 -
Johan Manzambi Newcastle United Ativo 136 / 142 40% 1 03.05.2027 -
Christ Inao Oulaï Fiorentina Ativo 134 / 133 40% 5 01.05.2027 -
Bernardo Lima Porto Ativo 92 / 111 40% 2 01.05.2027 -
Darryl Bakola Padova Ativo 112 / 108 40% 1 01.05.2027 -
Zane Albarus Cambridge United Ativo 92 / 111 40% 2 30.04.2027 -
Daniel Vernattus Metalist Ativo 83 / 82 40% 1 30.04.2027 -
Riley Owen Trento Ativo 101 / 118 40% 1 29.04.2027 -
Pietro Reggiori Pro Patria Ativo 95 / 95 40% 1 28.04.2027 -
Afonso Assis Moreirense Ativo 108 / 119 40% 2 19.04.2027 -
Matvey Kislyak CSKA Moscow Ativo 130 / 146 40% 2 19.04.2027 -
Lucas Agazzi Defensor Sporting Ativo 123 / 123 40% 2 18.04.2027 -
David Ozoh Derby County Ativo 122 / 135 40% 2 18.04.2027 -
Ibrahim Maza Bayer Leverkusen Ativo 151 / 139 40% 6 17.04.2027 -
Martim Cunha Porto Ativo 101 / 110 40% 2 17.04.2027 -
Taras Mykhavko Dynamo Kyiv Ativo 131 / 144 40% 1 16.04.2027 -
Keagan Tau Ajax Cape Town Ativo 99 / 95 40% 3 15.04.2027 -
Juan Giménez Celta Ativo 119 / 126 40% 1 12.04.2027 -
Ernie Weaver AFC Wimbledon Ativo 110 / 110 40% 1 11.04.2027 -
Mpho Khethang AS Police Ativo 75 / 85 40% 1 06.04.2027 -
Pape Diong Westerlo Ativo 105 / 116 40% 1 31.03.2027 -
Zaïd BafdilI Sporting CP Ativo 84 / 92 40% 1 28.03.2027 -
Keagan Phiri Platinum Stars Ativo 102 / 101 40% 1 22.03.2027 -
Tiago Freitas Benfica Ativo 115 / 114 40% 2 18.03.2027 -
Joaquin Seys Club Brugge Ativo 132 / 124 40% 1 18.03.2027 -
Cemran Dansin Orlando Pirates Ativo 116 / 111 40% 2 17.03.2027 -
Joel McGregor Swindon Town Ativo 87 / 110 40% 1 16.03.2027 -
James Dornelly Peterborough United Ativo 106 / 101 40% 1 11.03.2027 -
Hlompho Lorch Ajax Cape Town Ativo 94 / 112 40% 1 11.03.2027 -
Gonçalo Oliveira Benfica Ativo 101 / 125 40% 1 09.03.2027 -
Ronwen Phiri Platinum Stars Ativo 103 / 94 40% 1 09.03.2027 -
Noah Nartey Olympique Lyonnais Ativo 131 / 129 40% 1 08.03.2027 -
Andreas Trimmel Red Bull Salzburg Ativo 131 / 131 60% 1 01.01.2027 -
Nicolò Tresoldi Club Brugge Perdido 129 / 133 67% 1 01.01.2027 Aprovar
Ethan Williams Peterborough United Ativo 110 / 115 40% 1 31.12.2026 -
Kyriani Sabbe Club Brugge Ativo 114 / 138 40% 1 30.12.2026 -
Warren Zaïre-Emery Paris Saint-Germain Ativo 154 / 160 40% 1 30.12.2026 -
Malick Fofana Sunderland Ativo 144 / 154 40% 2 29.12.2026 -
Endrick Real Madrid Ativo 140 / 146 40% 1 29.12.2026 -
Jesús Rodríguez Como Ativo 136 / 154 40% 2 28.12.2026 -
Rayane Bounida Ajax Ativo 133 / 134 40% 1 28.12.2026 -
Robert FC Copenhagen Ativo 134 / 113 40% 3 20.12.2026 -
Kevin Álvarez Patriotas Ativo 104 / 98 40% 1 20.12.2026 -
William Gomes Porto Ativo 140 / 156 40% 1 15.12.2026 -
Patrick Preciado Deportivo Pasto Ativo 103 / 120 40% 2 13.12.2026 -
David Mella Deportivo La Coruña Ativo 133 / 128 40% 1 13.12.2026 -
Tristan Degreef Anderlecht Ativo 121 / 120 40% 2 10.12.2026 -
Sidiki Chérif Coventry City Ativo 122 / 120 40% 1 10.12.2026 -
Othmane Maamma Watford Ativo 119 / 126 40% 1 07.12.2026 -
Giovanni Cantizano Rosario Central Ativo 119 / 133 40% 2 23.11.2026 -
Caylan Vickers Burton Albion Ativo 113 / 112 40% 1 22.11.2026 -
Valentino Acuña Newell's Old Boys Ativo 107 / 108 40% 1 19.11.2026 -
Ian Garguez Palestino Ativo 111 / 128 40% 1 15.11.2026 -
Lautaro Vargas Leganés Ativo 117 / 137 40% 1 11.11.2026 -
Tobías Correa Gamba Osaka Ativo 95 / 97 40% 1 11.11.2026 -
Arjan Malić Sturm Graz Ativo 115 / 129 40% 1 09.11.2026 -
Javier Mena Portimonense Ativo 117 / 128 40% 1 08.11.2026 -
El Hadji Malick Diouf Brentford Ativo 141 / 133 40% 3 06.11.2026 -
Felipe Obradovich Ferro Carril Oeste Ativo 103 / 108 40% 1 06.10.2026 -
Axel Frugone Defensor Sporting Ativo 113 / 131 40% 1 05.10.2026 -
Simón Pinto Palestino Ativo 100 / 95 40% 1 05.10.2026 -
Bianneider Tamayo Universidad de Chile Ativo 114 / 99 40% 1 11.09.2026 -
Mateo Mendoza Godoy Cruz Ativo 120 / 128 40% 1 10.09.2026 -
Felipe Faúndez O'Higgins Ativo 94 / 124 40% 1 08.09.2026 -
Octavio Ontivero Lanús Ativo 108 / 119 40% 1 25.08.2026 -
Jack Hinshelwood Brighton Ativo 144 / 138 40% 1 25.08.2026 -
Alan Forneris Racing Club Ativo 120 / 102 40% 1 25.08.2026 -
Mickaël Malsa Mirandés Ativo 112 / 124 72% 1 10.08.2026 Aprovar
Jorrel Hato Chelsea Ativo 143 / 144 40% 1 10.08.2026 -
Keimer Sandoval Deportivo Cali Ativo 90 / 86 40% 1 10.08.2026 -
Mateo Raschia Unión de Santa Fe Ativo 97 / 77 40% 1 03.08.2026 -